createdAt,value
2023-04-15T00:00:05.922Z,93.70
2023-04-15T00:00:15.327Z,93.60
2023-04-15T00:00:24.756Z,93.60
2023-04-15T00:00:34.167Z,93.50
2023-04-15T00:00:43.587Z,93.40
2023-04-15T00:00:53.016Z,93.30
2023-04-15T00:01:12.052Z,93.20
2023-04-15T00:01:21.271Z,93.10
2023-04-15T00:01:30.691Z,93.20
2023-04-15T00:01:40.179Z,93.20
2023-04-15T00:01:49.674Z,93.10
2023-04-15T00:01:59.057Z,93.10
2023-04-15T00:02:17.912Z,93.20
2023-04-15T00:02:27.381Z,93.20
2023-04-15T00:02:36.749Z,93.20
2023-04-15T00:02:46.173Z,93.30
2023-04-15T00:02:55.615Z,93.30
2023-04-15T00:03:05.036Z,93.40
2023-04-15T00:03:23.847Z,93.50
2023-04-15T00:03:33.331Z,93.50
2023-04-15T00:03:42.548Z,93.60
2023-04-15T00:03:51.933Z,93.70
2023-04-15T00:04:01.396Z,93.80
2023-04-15T00:04:10.828Z,93.90
2023-04-15T00:04:29.598Z,94.00
2023-04-15T00:04:38.997Z,94.10
2023-04-15T00:04:48.528Z,94.10
2023-04-15T00:04:57.850Z,94.10
2023-04-15T00:05:07.307Z,94.10
2023-04-15T00:05:16.732Z,94.20
2023-04-15T00:05:35.533Z,94.20
2023-04-15T00:05:44.944Z,94.30
2023-04-15T00:05:54.343Z,94.30
2023-04-15T00:06:03.747Z,94.40
2023-04-15T00:06:13.127Z,94.50
2023-04-15T00:06:22.534Z,94.60
2023-04-15T00:06:41.334Z,94.80
2023-04-15T00:06:50.724Z,94.90
2023-04-15T00:07:00.117Z,95.00
2023-04-15T00:07:09.604Z,95.00
2023-04-15T00:07:19.018Z,95.10
2023-04-15T00:07:28.408Z,95.10
2023-04-15T00:07:47.230Z,95.10
2023-04-15T00:07:56.627Z,95.10
2023-04-15T00:08:06.007Z,95.10
2023-04-15T00:08:15.412Z,95.10
2023-04-15T00:08:24.835Z,95.10
2023-04-15T00:08:34.281Z,95.10
2023-04-15T00:08:53.102Z,95.00
2023-04-15T00:09:02.784Z,95.00
2023-04-15T00:09:11.910Z,95.00
2023-04-15T00:09:21.368Z,95.00
2023-04-15T00:09:30.747Z,94.90
2023-04-15T00:09:40.145Z,94.90
2023-04-15T00:10:00.522Z,94.80
2023-04-15T00:10:09.941Z,94.80
2023-04-15T00:10:19.341Z,94.70
2023-04-15T00:10:28.747Z,94.60
2023-04-15T00:10:38.174Z,94.60
2023-04-15T00:10:47.588Z,94.50
2023-04-15T00:11:06.915Z,94.30
2023-04-15T00:11:16.308Z,94.20
2023-04-15T00:11:25.710Z,94.20
2023-04-15T00:11:35.122Z,94.20
2023-04-15T00:11:44.551Z,94.20
2023-04-15T00:11:53.964Z,94.20
2023-04-15T00:12:12.794Z,94.00
2023-04-15T00:12:22.166Z,93.90
2023-04-15T00:12:31.552Z,93.90
2023-04-15T00:12:40.956Z,93.90
2023-04-15T00:12:50.352Z,93.80
2023-04-15T00:12:59.750Z,93.70
2023-04-15T00:13:18.603Z,93.50
2023-04-15T00:13:28.005Z,93.50
2023-04-15T00:13:37.433Z,93.40
2023-04-15T00:13:46.819Z,93.30
2023-04-15T00:13:56.258Z,93.40
2023-04-15T00:14:05.712Z,93.30
2023-04-15T00:14:24.515Z,93.20
2023-04-15T00:14:33.896Z,93.20
2023-04-15T00:14:43.300Z,93.10
2023-04-15T00:14:52.711Z,93.00
2023-04-15T00:15:03.365Z,93.00
2023-04-15T00:15:12.738Z,92.90
2023-04-15T00:15:31.556Z,92.80
2023-04-15T00:15:40.948Z,92.80
2023-04-15T00:15:50.371Z,92.80
2023-04-15T00:15:59.775Z,92.70
2023-04-15T00:16:09.199Z,92.70
2023-04-15T00:16:18.674Z,92.60
2023-04-15T00:16:37.450Z,92.50
2023-04-15T00:16:46.854Z,92.40
2023-04-15T00:16:56.372Z,92.40
2023-04-15T00:17:05.612Z,92.40
2023-04-15T00:17:15.009Z,92.40
2023-04-15T00:17:24.439Z,92.40
2023-04-15T00:17:43.305Z,92.20
2023-04-15T00:17:52.703Z,92.20
2023-04-15T00:18:02.149Z,92.10
2023-04-15T00:18:11.545Z,92.20
2023-04-15T00:18:20.933Z,92.20
2023-04-15T00:18:30.347Z,92.10
2023-04-15T00:18:49.184Z,91.90
2023-04-15T00:18:58.866Z,91.90
2023-04-15T00:19:08.030Z,91.90
2023-04-15T00:19:17.433Z,91.90
2023-04-15T00:19:26.841Z,91.90
2023-04-15T00:19:36.231Z,91.90
2023-04-15T00:19:55.050Z,91.70
2023-04-15T00:20:04.457Z,91.70
2023-04-15T00:20:13.877Z,91.70
2023-04-15T00:20:23.450Z,91.60
2023-04-15T00:20:32.820Z,91.60
2023-04-15T00:20:42.252Z,91.50
2023-04-15T00:21:01.141Z,91.40
2023-04-15T00:21:10.529Z,91.40
2023-04-15T00:21:19.936Z,91.30
2023-04-15T00:21:29.345Z,91.30
2023-04-15T00:21:38.772Z,91.30
2023-04-15T00:21:48.214Z,91.30
2023-04-15T00:22:07.104Z,91.20
2023-04-15T00:22:16.523Z,91.20
2023-04-15T00:22:25.939Z,91.20
2023-04-15T00:22:35.332Z,91.20
2023-04-15T00:22:44.755Z,91.10
2023-04-15T00:22:54.166Z,91.10
2023-04-15T00:23:13.042Z,91.10
2023-04-15T00:23:22.434Z,91.10
2023-04-15T00:23:31.857Z,91.10
2023-04-15T00:23:41.296Z,91.10
2023-04-15T00:23:50.709Z,91.10
2023-04-15T00:24:00.144Z,91.00
2023-04-15T00:24:18.969Z,90.90
2023-04-15T00:24:28.460Z,90.90
2023-04-15T00:24:37.903Z,90.90
2023-04-15T00:24:47.285Z,90.80
2023-04-15T00:24:56.684Z,90.90
2023-04-15T00:25:06.089Z,90.90
2023-04-15T00:25:24.927Z,91.00
2023-04-15T00:25:34.343Z,91.00
2023-04-15T00:25:43.761Z,91.00
2023-04-15T00:25:53.192Z,91.10
2023-04-15T00:26:02.619Z,91.10
2023-04-15T00:26:12.035Z,91.20
2023-04-15T00:26:30.920Z,91.30
2023-04-15T00:26:40.329Z,91.30
2023-04-15T00:26:49.768Z,91.40
2023-04-15T00:26:59.183Z,91.50
2023-04-15T00:27:08.604Z,91.50
2023-04-15T00:27:18.040Z,91.60
2023-04-15T00:27:36.822Z,91.80
2023-04-15T00:27:46.247Z,91.90
2023-04-15T00:27:55.674Z,92.00
2023-04-15T00:28:05.089Z,92.10
2023-04-15T00:28:14.528Z,92.20
2023-04-15T00:28:23.925Z,92.30
2023-04-15T00:28:42.904Z,92.60
2023-04-15T00:28:52.301Z,92.70
2023-04-15T00:29:01.920Z,92.80
2023-04-15T00:29:11.139Z,92.90
2023-04-15T00:29:20.540Z,93.00
2023-04-15T00:29:29.970Z,93.20
2023-04-15T00:29:48.856Z,93.50
2023-04-15T00:29:58.318Z,93.60
2023-04-15T00:30:07.700Z,93.70
2023-04-15T00:30:17.125Z,93.90
2023-04-15T00:30:26.633Z,94.00
2023-04-15T00:30:36.063Z,94.20
2023-04-15T00:30:54.880Z,94.50
2023-04-15T00:31:04.279Z,94.70
2023-04-15T00:31:13.682Z,94.80
2023-04-15T00:31:23.314Z,94.80
2023-04-15T00:31:32.502Z,94.90
2023-04-15T00:31:41.920Z,95.00
2023-04-15T00:32:00.754Z,95.20
2023-04-15T00:32:10.221Z,95.30
2023-04-15T00:32:19.651Z,95.40
2023-04-15T00:32:29.037Z,95.50
2023-04-15T00:32:38.527Z,95.60
2023-04-15T00:32:47.969Z,95.70
2023-04-15T00:33:06.728Z,96.00
2023-04-15T00:33:16.144Z,96.10
2023-04-15T00:33:25.535Z,96.10
2023-04-15T00:33:34.960Z,96.20
2023-04-15T00:33:44.393Z,96.30
2023-04-15T00:33:53.810Z,96.50
2023-04-15T00:34:12.629Z,96.70
2023-04-15T00:34:22.025Z,96.80
2023-04-15T00:34:31.566Z,96.80
2023-04-15T00:34:40.994Z,97.00
2023-04-15T00:34:50.445Z,97.10
2023-04-15T00:34:59.843Z,97.40
2023-04-15T00:35:18.703Z,97.70
2023-04-15T00:35:28.117Z,97.80
2023-04-15T00:35:37.551Z,97.90
2023-04-15T00:35:46.952Z,97.90
2023-04-15T00:35:56.328Z,98.00
2023-04-15T00:36:05.746Z,98.10
2023-04-15T00:36:24.587Z,98.30
2023-04-15T00:36:34.033Z,98.40
2023-04-15T00:36:43.484Z,98.50
2023-04-15T00:36:52.883Z,98.50
2023-04-15T00:37:02.286Z,98.70
2023-04-15T00:37:11.718Z,98.70
2023-04-15T00:37:30.564Z,98.90
2023-04-15T00:37:39.962Z,99.00
2023-04-15T00:37:49.375Z,99.10
2023-04-15T00:37:58.797Z,99.20
2023-04-15T00:38:08.276Z,99.30
2023-04-15T00:38:17.732Z,99.40
2023-04-15T00:38:36.586Z,99.70
2023-04-15T00:38:46.054Z,99.90
2023-04-15T00:38:55.444Z,99.90
2023-04-15T00:39:04.874Z,99.90
2023-04-15T00:39:14.310Z,99.90
2023-04-15T00:39:23.684Z,99.90
2023-04-15T00:39:42.530Z,99.90
2023-04-15T00:39:51.924Z,99.90
2023-04-15T00:40:01.349Z,99.90
2023-04-15T00:40:10.766Z,99.90
2023-04-15T00:40:20.191Z,99.90
2023-04-15T00:40:29.637Z,99.90
2023-04-15T00:40:48.476Z,99.90
2023-04-15T00:40:57.911Z,99.90
2023-04-15T00:41:07.370Z,99.90
2023-04-15T00:41:16.805Z,99.90
2023-04-15T00:41:26.236Z,99.90
2023-04-15T00:41:35.656Z,99.90
2023-04-15T00:41:54.491Z,99.90
2023-04-15T00:42:03.910Z,99.90
2023-04-15T00:42:13.312Z,99.90
2023-04-15T00:42:22.754Z,99.90
2023-04-15T00:42:32.284Z,99.90
2023-04-15T00:42:41.750Z,99.90
2023-04-15T00:43:00.588Z,99.90
2023-04-15T00:43:09.995Z,99.90
2023-04-15T00:43:19.412Z,99.90
2023-04-15T00:43:28.845Z,99.90
2023-04-15T00:43:38.278Z,99.90
2023-04-15T00:43:47.680Z,99.90
2023-04-15T00:44:06.546Z,99.90
2023-04-15T00:44:15.994Z,99.90
2023-04-15T00:44:25.411Z,99.90
2023-04-15T00:44:34.854Z,99.90
2023-04-15T00:44:44.272Z,99.90
2023-04-15T00:44:53.689Z,99.90
2023-04-15T00:45:12.531Z,99.90
2023-04-15T00:45:22.021Z,99.90
2023-04-15T00:45:31.535Z,99.90
2023-04-15T00:45:40.979Z,99.90
2023-04-15T00:45:50.404Z,99.90
2023-04-15T00:45:59.828Z,99.90
2023-04-15T00:46:18.779Z,99.90
2023-04-15T00:46:28.104Z,99.90
2023-04-15T00:46:37.523Z,99.90
2023-04-15T00:46:46.956Z,99.90
2023-04-15T00:46:56.365Z,99.90
2023-04-15T00:47:05.803Z,99.90
2023-04-15T00:47:24.670Z,99.90
2023-04-15T00:47:34.087Z,99.90
2023-04-15T00:47:43.551Z,99.90
2023-04-15T00:47:52.945Z,99.90
2023-04-15T00:48:02.374Z,99.90
2023-04-15T00:48:11.789Z,99.90
2023-04-15T00:48:30.629Z,99.90
2023-04-15T00:48:40.071Z,99.90
2023-04-15T00:48:49.568Z,99.90
2023-04-15T00:48:59.200Z,99.90
2023-04-15T00:49:08.392Z,99.90
2023-04-15T00:49:17.815Z,99.90
2023-04-15T00:49:36.655Z,99.90
2023-04-15T00:49:46.076Z,99.90
2023-04-15T00:49:55.575Z,99.90
2023-04-15T00:50:05.137Z,99.90
2023-04-15T00:50:14.395Z,99.90
2023-04-15T00:50:23.818Z,99.90
2023-04-15T00:50:42.705Z,99.90
2023-04-15T00:50:52.130Z,99.90
2023-04-15T00:51:01.556Z,99.90
2023-04-15T00:51:10.953Z,99.90
2023-04-15T00:51:20.355Z,99.90
2023-04-15T00:51:29.778Z,99.90
2023-04-15T00:51:48.654Z,99.90
2023-04-15T00:51:58.052Z,99.90
2023-04-15T00:52:07.455Z,99.90
2023-04-15T00:52:16.877Z,99.90
2023-04-15T00:52:26.308Z,99.90
2023-04-15T00:52:35.721Z,99.90
2023-04-15T00:52:54.563Z,99.90
2023-04-15T00:53:03.974Z,99.90
2023-04-15T00:53:13.414Z,99.90
2023-04-15T00:53:22.841Z,99.90
2023-04-15T00:53:32.246Z,99.90
2023-04-15T00:53:41.709Z,99.90
2023-04-15T00:54:00.534Z,99.90
2023-04-15T00:54:09.934Z,99.90
2023-04-15T00:54:19.455Z,99.90
2023-04-15T00:54:28.771Z,99.90
2023-04-15T00:54:38.191Z,99.90
2023-04-15T00:54:47.616Z,99.90
2023-04-15T00:55:06.474Z,99.90
2023-04-15T00:55:15.937Z,99.90
2023-04-15T00:55:25.333Z,99.90
2023-04-15T00:55:34.750Z,99.90
2023-04-15T00:55:44.154Z,99.90
2023-04-15T00:55:53.548Z,99.90
2023-04-15T00:56:12.399Z,99.90
2023-04-15T00:56:21.818Z,99.90
2023-04-15T00:56:31.240Z,99.90
2023-04-15T00:56:40.666Z,99.90
2023-04-15T00:56:50.087Z,99.90
2023-04-15T00:56:59.506Z,99.90
2023-04-15T00:57:18.397Z,99.90
2023-04-15T00:57:27.809Z,99.90
2023-04-15T00:57:37.276Z,99.90
2023-04-15T00:57:46.745Z,99.90
2023-04-15T00:57:56.174Z,99.90
2023-04-15T00:58:05.593Z,99.90
2023-04-15T00:58:24.420Z,99.90
2023-04-15T00:58:33.822Z,99.90
2023-04-15T00:58:43.251Z,99.90
2023-04-15T00:58:52.656Z,99.90
2023-04-15T00:59:02.389Z,99.90
2023-04-15T00:59:11.507Z,99.90
2023-04-15T00:59:30.377Z,99.90
2023-04-15T00:59:39.809Z,99.90
2023-04-15T00:59:49.222Z,99.90
2023-04-15T00:59:58.645Z,99.90
2023-04-15T01:00:08.062Z,99.90
2023-04-15T01:00:17.444Z,99.90
2023-04-15T01:00:36.225Z,99.90
2023-04-15T01:00:45.637Z,99.90
2023-04-15T01:00:55.066Z,99.90
2023-04-15T01:01:04.487Z,99.90
2023-04-15T01:01:13.929Z,99.90
2023-04-15T01:01:23.362Z,99.90
2023-04-15T01:01:42.145Z,99.90
2023-04-15T01:01:51.657Z,99.90
2023-04-15T01:02:01.002Z,99.90
2023-04-15T01:02:10.568Z,99.90
2023-04-15T01:02:19.972Z,99.90
2023-04-15T01:02:29.476Z,99.90
2023-04-15T01:02:48.163Z,99.90
2023-04-15T01:02:57.600Z,99.90
2023-04-15T01:03:07.003Z,99.90
2023-04-15T01:03:16.362Z,99.90
2023-04-15T01:03:25.760Z,99.90
2023-04-15T01:03:35.113Z,99.90
2023-04-15T01:03:54.008Z,99.90
2023-04-15T01:04:03.432Z,99.90
2023-04-15T01:04:12.855Z,99.90
2023-04-15T01:04:22.216Z,99.90
2023-04-15T01:04:31.694Z,99.90
2023-04-15T01:04:40.944Z,99.90
2023-04-15T01:04:59.751Z,99.90
2023-04-15T01:05:09.157Z,99.90
2023-04-15T01:05:18.607Z,99.90
2023-04-15T01:05:28.002Z,99.90
2023-04-15T01:05:37.380Z,99.90
2023-04-15T01:05:46.776Z,99.90
2023-04-15T01:06:05.610Z,99.90
2023-04-15T01:06:15.000Z,99.90
2023-04-15T01:06:24.423Z,99.90
2023-04-15T01:06:33.845Z,99.90
2023-04-15T01:06:43.258Z,99.90
2023-04-15T01:06:52.673Z,99.90
2023-04-15T01:07:11.495Z,99.90
2023-04-15T01:07:20.919Z,99.90
2023-04-15T01:07:30.318Z,99.90
2023-04-15T01:07:39.715Z,99.90
2023-04-15T01:07:49.136Z,99.70
2023-04-15T01:07:58.559Z,99.50
2023-04-15T01:08:17.397Z,99.50
2023-04-15T01:08:26.788Z,99.40
2023-04-15T01:08:36.183Z,99.20
2023-04-15T01:08:45.599Z,99.10
2023-04-15T01:08:55.002Z,98.90
2023-04-15T01:09:04.404Z,98.80
2023-04-15T01:09:23.229Z,98.40
2023-04-15T01:09:32.603Z,98.20
2023-04-15T01:09:42.006Z,98.10
2023-04-15T01:09:51.404Z,97.90
2023-04-15T01:10:00.798Z,97.80
2023-04-15T01:10:10.177Z,97.70
2023-04-15T01:10:28.986Z,97.50
2023-04-15T01:10:38.381Z,97.40
2023-04-15T01:10:47.774Z,97.30
2023-04-15T01:10:57.177Z,97.10
2023-04-15T01:11:06.599Z,97.00
2023-04-15T01:11:15.976Z,96.90
2023-04-15T01:11:34.778Z,96.50
2023-04-15T01:11:44.174Z,96.40
2023-04-15T01:11:53.603Z,96.30
2023-04-15T01:12:03.016Z,96.10
2023-04-15T01:12:12.384Z,96.00
2023-04-15T01:12:21.778Z,95.80
2023-04-15T01:12:40.668Z,95.70
2023-04-15T01:12:50.108Z,95.70
2023-04-15T01:12:59.470Z,95.60
2023-04-15T01:13:08.868Z,95.50
2023-04-15T01:13:18.314Z,95.50
2023-04-15T01:13:27.714Z,95.40
2023-04-15T01:13:46.563Z,95.30
2023-04-15T01:13:55.968Z,95.20
2023-04-15T01:14:05.390Z,95.20
2023-04-15T01:14:14.803Z,95.10
2023-04-15T01:14:24.202Z,95.10
2023-04-15T01:14:33.620Z,95.10
2023-04-15T01:14:52.409Z,95.00
2023-04-15T01:15:01.888Z,94.90
2023-04-15T01:15:11.278Z,94.80
2023-04-15T01:15:20.626Z,94.70
2023-04-15T01:15:30.066Z,94.60
2023-04-15T01:15:39.506Z,94.50
2023-04-15T01:15:58.369Z,94.20
2023-04-15T01:16:07.688Z,94.00
2023-04-15T01:16:17.047Z,93.80
2023-04-15T01:16:26.440Z,93.70
2023-04-15T01:16:35.873Z,93.60
2023-04-15T01:16:45.207Z,93.50
2023-04-15T01:17:04.046Z,93.50
2023-04-15T01:17:13.464Z,93.50
2023-04-15T01:17:22.904Z,93.40
2023-04-15T01:17:32.287Z,93.40
2023-04-15T01:17:41.735Z,93.50
2023-04-15T01:17:51.120Z,93.50
2023-04-15T01:18:09.896Z,93.40
2023-04-15T01:18:19.315Z,93.30
2023-04-15T01:18:28.758Z,93.30
2023-04-15T01:18:38.150Z,93.20
2023-04-15T01:18:47.592Z,93.20
2023-04-15T01:18:56.989Z,93.10
2023-04-15T01:19:15.846Z,93.00
2023-04-15T01:19:25.290Z,92.90
2023-04-15T01:19:34.755Z,92.80
2023-04-15T01:19:44.185Z,92.70
2023-04-15T01:19:53.594Z,92.60
2023-04-15T01:20:02.979Z,92.60
2023-04-15T01:20:21.824Z,92.50
2023-04-15T01:20:31.234Z,92.50
2023-04-15T01:20:40.675Z,92.50
2023-04-15T01:20:50.076Z,92.40
2023-04-15T01:20:59.481Z,92.30
2023-04-15T01:21:08.891Z,92.30
2023-04-15T01:21:27.693Z,92.20
2023-04-15T01:21:37.061Z,92.20
2023-04-15T01:21:46.483Z,92.20
2023-04-15T01:21:55.890Z,92.10
2023-04-15T01:22:05.343Z,92.00
2023-04-15T01:22:14.744Z,92.00
2023-04-15T01:22:33.576Z,91.90
2023-04-15T01:22:42.957Z,91.80
2023-04-15T01:22:52.363Z,91.70
2023-04-15T01:23:01.857Z,91.70
2023-04-15T01:23:11.199Z,91.60
2023-04-15T01:23:20.608Z,91.60
2023-04-15T01:23:39.499Z,91.50
2023-04-15T01:23:48.959Z,91.60
2023-04-15T01:23:58.392Z,91.60
2023-04-15T01:24:07.799Z,91.60
2023-04-15T01:24:17.259Z,91.70
2023-04-15T01:24:26.696Z,91.80
2023-04-15T01:24:45.536Z,91.90
2023-04-15T01:24:55.010Z,92.00
2023-04-15T01:25:04.417Z,92.10
2023-04-15T01:25:13.842Z,92.10
2023-04-15T01:25:23.256Z,92.20
2023-04-15T01:25:32.676Z,92.30
2023-04-15T01:25:51.517Z,92.50
2023-04-15T01:26:00.947Z,92.60
2023-04-15T01:26:10.367Z,92.70
2023-04-15T01:26:19.812Z,92.80
2023-04-15T01:26:29.206Z,92.80
2023-04-15T01:26:38.622Z,92.90
2023-04-15T01:26:57.472Z,93.10
2023-04-15T01:27:06.889Z,93.20
2023-04-15T01:27:16.309Z,93.30
2023-04-15T01:27:25.730Z,93.40
2023-04-15T01:27:35.197Z,93.50
2023-04-15T01:27:44.634Z,93.60
2023-04-15T01:28:03.442Z,93.80
2023-04-15T01:28:12.912Z,94.00
2023-04-15T01:28:22.322Z,94.10
2023-04-15T01:28:31.730Z,94.10
2023-04-15T01:28:41.169Z,94.30
2023-04-15T01:28:50.651Z,94.40
2023-04-15T01:29:09.484Z,94.70
2023-04-15T01:29:18.885Z,94.80
2023-04-15T01:29:28.305Z,94.90
2023-04-15T01:29:37.724Z,95.10
2023-04-15T01:29:47.146Z,95.20
2023-04-15T01:29:56.569Z,95.30
2023-04-15T01:30:15.408Z,95.60
2023-04-15T01:30:24.862Z,95.70
2023-04-15T01:30:34.289Z,95.80
2023-04-15T01:30:43.737Z,96.00
2023-04-15T01:30:53.160Z,96.00
2023-04-15T01:31:02.638Z,96.20
2023-04-15T01:31:21.489Z,96.50
2023-04-15T01:31:30.892Z,96.60
2023-04-15T01:31:40.317Z,96.70
2023-04-15T01:31:49.747Z,96.80
2023-04-15T01:31:59.202Z,97.00
2023-04-15T01:32:08.557Z,97.00
2023-04-15T01:32:27.397Z,97.20
2023-04-15T01:32:36.764Z,97.40
2023-04-15T01:32:46.245Z,97.50
2023-04-15T01:32:55.658Z,97.60
2023-04-15T01:33:05.054Z,97.70
2023-04-15T01:33:14.485Z,97.80
2023-04-15T01:33:33.346Z,98.10
2023-04-15T01:33:42.773Z,98.20
2023-04-15T01:33:52.315Z,98.30
2023-04-15T01:34:01.643Z,98.50
2023-04-15T01:34:11.095Z,98.40
2023-04-15T01:34:20.480Z,98.50
2023-04-15T01:34:39.571Z,98.70
2023-04-15T01:34:48.984Z,98.80
2023-04-15T01:34:58.408Z,98.90
2023-04-15T01:35:07.843Z,98.90
2023-04-15T01:35:17.231Z,98.30
2023-04-15T01:35:26.642Z,99.10
2023-04-15T01:35:45.543Z,99.20
2023-04-15T01:35:54.945Z,99.30
2023-04-15T01:36:04.385Z,99.40
2023-04-15T01:36:13.812Z,99.50
2023-04-15T01:36:23.237Z,99.60
2023-04-15T01:36:32.655Z,99.70
2023-04-15T01:36:51.521Z,99.80
2023-04-15T01:37:00.924Z,99.80
2023-04-15T01:37:10.332Z,99.90
2023-04-15T01:37:19.734Z,99.90
2023-04-15T01:37:29.137Z,99.90
2023-04-15T01:37:38.569Z,99.90
2023-04-15T01:37:57.437Z,99.90
2023-04-15T01:38:06.854Z,99.90
2023-04-15T01:38:16.267Z,99.90
2023-04-15T01:38:25.706Z,99.90
2023-04-15T01:38:35.127Z,99.90
2023-04-15T01:38:44.521Z,99.90
2023-04-15T01:39:03.428Z,99.90
2023-04-15T01:39:12.774Z,99.90
2023-04-15T01:39:22.193Z,99.90
2023-04-15T01:39:31.678Z,99.90
2023-04-15T01:39:41.061Z,99.90
2023-04-15T01:39:50.452Z,99.90
2023-04-15T01:40:09.302Z,99.90
2023-04-15T01:40:18.732Z,99.90
2023-04-15T01:40:28.168Z,99.50
2023-04-15T01:40:37.578Z,99.90
2023-04-15T01:40:46.978Z,99.90
2023-04-15T01:40:56.407Z,99.90
2023-04-15T01:41:15.235Z,99.80
2023-04-15T01:41:24.702Z,99.80
2023-04-15T01:41:34.121Z,99.80
2023-04-15T01:41:43.536Z,99.80
2023-04-15T01:41:52.939Z,99.70
2023-04-15T01:42:02.378Z,99.70
2023-04-15T01:42:21.183Z,99.70
2023-04-15T01:42:30.579Z,99.80
2023-04-15T01:42:40.003Z,99.80
2023-04-15T01:42:49.420Z,99.80
2023-04-15T01:42:58.855Z,99.90
2023-04-15T01:43:08.337Z,99.90
2023-04-15T01:43:27.282Z,99.90
2023-04-15T01:43:36.678Z,99.90
2023-04-15T01:43:46.094Z,99.90
2023-04-15T01:43:55.504Z,99.90
2023-04-15T01:44:04.900Z,99.90
2023-04-15T01:44:14.316Z,99.90
2023-04-15T01:44:33.101Z,99.90
2023-04-15T01:44:42.498Z,99.90
2023-04-15T01:44:51.952Z,99.90
2023-04-15T01:45:01.397Z,99.90
2023-04-15T01:45:10.774Z,99.90
2023-04-15T01:45:20.183Z,99.90
2023-04-15T01:45:39.040Z,99.90
2023-04-15T01:45:48.433Z,99.90
2023-04-15T01:45:57.835Z,99.90
2023-04-15T01:46:07.272Z,99.90
2023-04-15T01:46:16.773Z,99.90
2023-04-15T01:46:26.211Z,99.90
2023-04-15T01:46:44.998Z,99.90
2023-04-15T01:46:54.460Z,99.90
2023-04-15T01:47:03.922Z,99.90
2023-04-15T01:47:13.210Z,99.80
2023-04-15T01:47:22.674Z,99.70
2023-04-15T01:47:32.115Z,99.60
2023-04-15T01:47:50.952Z,99.40
2023-04-15T01:48:00.372Z,99.20
2023-04-15T01:48:09.863Z,99.10
2023-04-15T01:48:19.224Z,99.00
2023-04-15T01:48:28.636Z,98.90
2023-04-15T01:48:38.044Z,98.70
2023-04-15T01:48:56.908Z,98.40
2023-04-15T01:49:06.326Z,98.30
2023-04-15T01:49:15.742Z,98.30
2023-04-15T01:49:25.163Z,98.20
2023-04-15T01:49:34.568Z,98.00
2023-04-15T01:49:43.971Z,98.00
2023-04-15T01:50:02.774Z,97.70
2023-04-15T01:50:12.173Z,97.60
2023-04-15T01:50:21.642Z,97.60
2023-04-15T01:50:31.012Z,97.40
2023-04-15T01:50:40.434Z,97.20
2023-04-15T01:50:49.852Z,97.10
2023-04-15T01:51:08.697Z,96.90
2023-04-15T01:51:18.156Z,96.80
2023-04-15T01:51:27.562Z,96.70
2023-04-15T01:51:36.952Z,96.70
2023-04-15T01:51:46.380Z,96.60
2023-04-15T01:51:55.806Z,96.50
2023-04-15T01:52:14.631Z,96.30
2023-04-15T01:52:24.060Z,96.20
2023-04-15T01:52:33.480Z,96.10
2023-04-15T01:52:42.905Z,96.10
2023-04-15T01:52:52.401Z,96.00
2023-04-15T01:53:01.749Z,95.90
2023-04-15T01:53:20.602Z,95.70
2023-04-15T01:53:29.998Z,95.60
2023-04-15T01:53:39.425Z,95.60
2023-04-15T01:53:48.825Z,95.50
2023-04-15T01:53:58.252Z,95.50
2023-04-15T01:54:07.654Z,95.30
2023-04-15T01:54:26.496Z,95.00
2023-04-15T01:54:35.931Z,95.00
2023-04-15T01:54:45.310Z,94.90
2023-04-15T01:54:54.701Z,94.80
2023-04-15T01:55:04.120Z,94.70
2023-04-15T01:55:13.538Z,94.60
2023-04-15T01:55:32.347Z,94.40
2023-04-15T01:55:41.758Z,94.40
2023-04-15T01:55:51.152Z,94.30
2023-04-15T01:56:00.571Z,94.30
2023-04-15T01:56:09.989Z,94.20
2023-04-15T01:56:19.378Z,94.20
2023-04-15T01:56:38.220Z,94.20
2023-04-15T01:56:47.607Z,94.20
2023-04-15T01:56:57.033Z,94.10
2023-04-15T01:57:06.425Z,94.10
2023-04-15T01:57:15.830Z,94.00
2023-04-15T01:57:25.225Z,93.90
2023-04-15T01:57:44.032Z,93.70
2023-04-15T01:57:53.472Z,93.70
2023-04-15T01:58:02.866Z,93.70
2023-04-15T01:58:12.273Z,93.70
2023-04-15T01:58:21.690Z,93.70
2023-04-15T01:58:31.100Z,93.60
2023-04-15T01:58:49.876Z,93.40
2023-04-15T01:58:59.526Z,93.30
2023-04-15T01:59:08.687Z,93.30
2023-04-15T01:59:18.109Z,93.20
2023-04-15T01:59:27.537Z,93.10
2023-04-15T01:59:36.980Z,93.10
2023-04-15T01:59:55.789Z,93.10
2023-04-15T02:00:05.194Z,93.00
2023-04-15T02:00:14.592Z,93.00
2023-04-15T02:00:24.050Z,92.90
2023-04-15T02:00:33.479Z,92.90
2023-04-15T02:00:42.937Z,92.90
2023-04-15T02:01:01.928Z,92.80
2023-04-15T02:01:11.271Z,92.80
2023-04-15T02:01:20.834Z,92.80
2023-04-15T02:01:30.181Z,92.80
2023-04-15T02:01:39.492Z,92.80
2023-04-15T02:01:48.932Z,92.90
2023-04-15T02:02:07.802Z,92.90
2023-04-15T02:02:17.183Z,93.00
2023-04-15T02:02:26.596Z,93.00
2023-04-15T02:02:35.995Z,93.10
2023-04-15T02:02:45.448Z,93.20
2023-04-15T02:02:54.779Z,93.30
2023-04-15T02:03:13.627Z,93.60
2023-04-15T02:03:22.981Z,93.70
2023-04-15T02:03:32.418Z,93.80
2023-04-15T02:03:41.808Z,93.90
2023-04-15T02:03:51.212Z,94.00
2023-04-15T02:04:00.572Z,94.10
2023-04-15T02:04:19.931Z,94.30
2023-04-15T02:04:29.372Z,94.40
2023-04-15T02:04:38.775Z,94.40
2023-04-15T02:04:48.179Z,94.40
2023-04-15T02:04:57.588Z,94.50
2023-04-15T02:05:07.035Z,94.40
2023-04-15T02:05:25.826Z,94.50
2023-04-15T02:05:35.211Z,94.60
2023-04-15T02:05:44.596Z,94.60
2023-04-15T02:05:54.004Z,94.60
2023-04-15T02:06:03.405Z,94.60
2023-04-15T02:06:12.803Z,94.60
2023-04-15T02:06:31.637Z,94.50
2023-04-15T02:06:41.010Z,94.50
2023-04-15T02:06:50.409Z,94.50
2023-04-15T02:06:59.834Z,94.50
2023-04-15T02:07:09.238Z,94.40
2023-04-15T02:07:18.637Z,94.40
2023-04-15T02:07:37.465Z,94.20
2023-04-15T02:07:46.855Z,94.20
2023-04-15T02:07:56.287Z,94.10
2023-04-15T02:08:05.702Z,94.00
2023-04-15T02:08:15.130Z,93.90
2023-04-15T02:08:24.543Z,93.90
2023-04-15T02:08:43.364Z,93.80
2023-04-15T02:08:52.774Z,93.80
2023-04-15T02:09:02.480Z,93.80
2023-04-15T02:09:11.639Z,93.80
2023-04-15T02:09:21.031Z,93.80
2023-04-15T02:09:30.430Z,93.80
2023-04-15T02:09:49.204Z,93.70
2023-04-15T02:09:58.600Z,93.60
2023-04-15T02:10:07.999Z,93.60
2023-04-15T02:10:17.387Z,93.50
2023-04-15T02:10:26.782Z,93.50
2023-04-15T02:10:36.170Z,93.40
2023-04-15T02:10:54.979Z,93.30
2023-04-15T02:11:04.387Z,93.20
2023-04-15T02:11:13.788Z,93.20
2023-04-15T02:11:23.271Z,93.20
2023-04-15T02:11:32.644Z,93.10
2023-04-15T02:11:42.044Z,93.00
2023-04-15T02:12:00.888Z,93.00
2023-04-15T02:12:10.262Z,92.90
2023-04-15T02:12:19.654Z,92.90
2023-04-15T02:12:29.048Z,92.80
2023-04-15T02:12:38.442Z,92.80
2023-04-15T02:12:47.843Z,92.80
2023-04-15T02:13:06.673Z,92.70
2023-04-15T02:13:16.075Z,92.70
2023-04-15T02:13:25.460Z,92.70
2023-04-15T02:13:34.859Z,92.70
2023-04-15T02:13:44.313Z,92.60
2023-04-15T02:13:53.703Z,92.60
2023-04-15T02:14:12.646Z,92.50
2023-04-15T02:14:22.123Z,92.40
2023-04-15T02:14:31.554Z,92.40
2023-04-15T02:14:40.952Z,92.40
2023-04-15T02:14:50.445Z,92.30
2023-04-15T02:14:59.859Z,92.30
2023-04-15T02:15:18.674Z,92.20
2023-04-15T02:15:28.057Z,92.20
2023-04-15T02:15:37.482Z,92.20
2023-04-15T02:15:46.877Z,92.10
2023-04-15T02:15:56.331Z,92.10
2023-04-15T02:16:05.781Z,92.00
2023-04-15T02:16:24.627Z,92.00
2023-04-15T02:16:33.985Z,91.90
2023-04-15T02:16:43.388Z,91.90
2023-04-15T02:16:52.877Z,91.70
2023-04-15T02:17:02.193Z,91.80
2023-04-15T02:17:11.570Z,91.80
2023-04-15T02:17:30.465Z,91.80
2023-04-15T02:17:39.849Z,91.70
2023-04-15T02:17:49.302Z,91.70
2023-04-15T02:17:58.708Z,91.70
2023-04-15T02:18:08.056Z,91.70
2023-04-15T02:18:17.434Z,91.70
2023-04-15T02:18:36.238Z,91.70
2023-04-15T02:18:45.649Z,91.60
2023-04-15T02:18:55.040Z,91.60
2023-04-15T02:19:04.461Z,91.60
2023-04-15T02:19:13.870Z,91.60
2023-04-15T02:19:23.290Z,91.60
2023-04-15T02:19:42.103Z,91.60
2023-04-15T02:19:51.569Z,91.60
2023-04-15T02:20:00.973Z,91.50
2023-04-15T02:20:10.368Z,91.50
2023-04-15T02:20:19.793Z,91.50
2023-04-15T02:20:29.206Z,91.50
2023-04-15T02:20:48.023Z,91.40
2023-04-15T02:20:57.437Z,91.40
2023-04-15T02:21:06.818Z,91.50
2023-04-15T02:21:16.234Z,91.50
2023-04-15T02:21:25.655Z,91.50